createdAt,value
2018-09-28T00:00:02.431Z,87.43
2018-09-28T00:02:30.365Z,87.49
2018-09-28T00:04:58.296Z,87.82
2018-09-28T00:07:26.255Z,87.54
2018-09-28T00:09:54.187Z,87.86
2018-09-28T00:12:22.274Z,87.44
2018-09-28T00:14:50.215Z,87.73
2018-09-28T00:17:18.142Z,87.02
2018-09-28T00:19:46.099Z,87.97
2018-09-28T00:22:14.095Z,88.32
2018-09-28T00:24:42.011Z,88.05
2018-09-28T00:27:09.921Z,87.71
2018-09-28T00:29:37.871Z,87.61
2018-09-28T00:32:06.070Z,88.16
2018-09-28T00:34:34.047Z,88.05
2018-09-28T00:37:01.983Z,87.28
2018-09-28T00:39:29.925Z,88.14
2018-09-28T00:41:57.892Z,88.20
2018-09-28T00:44:25.832Z,87.89
2018-09-28T00:46:53.752Z,88.36
2018-09-28T00:49:21.760Z,87.60
2018-09-28T00:51:49.697Z,88.19
2018-09-28T00:54:17.654Z,87.75
2018-09-28T00:56:45.624Z,88.25
2018-09-28T00:59:13.636Z,87.67
2018-09-28T01:01:41.615Z,87.31
2018-09-28T01:04:09.791Z,87.49
2018-09-28T01:06:37.754Z,87.44
2018-09-28T01:09:08.441Z,87.69
2018-09-28T01:11:36.465Z,87.79
2018-09-28T01:14:04.318Z,87.44
2018-09-28T01:16:32.185Z,87.16
2018-09-28T01:19:00.053Z,87.42
2018-09-28T01:21:27.919Z,87.03
2018-09-28T01:23:55.748Z,87.39
2018-09-28T01:26:23.570Z,86.82
2018-09-28T01:28:51.408Z,87.28
2018-09-28T01:33:53.651Z,87.44
2018-09-28T01:36:21.484Z,87.50
2018-09-28T01:38:49.302Z,88.25
2018-09-28T01:41:17.231Z,87.65
2018-09-28T01:43:45.104Z,87.17
2018-09-28T01:46:12.962Z,88.21
2018-09-28T01:48:40.785Z,87.15
2018-09-28T01:51:08.641Z,87.05
2018-09-28T01:53:36.518Z,87.45
2018-09-28T01:56:04.339Z,87.93
2018-09-28T01:58:32.202Z,88.58
2018-09-28T02:01:00.074Z,88.31
2018-09-28T02:03:27.873Z,88.79
2018-09-28T02:05:55.724Z,88.82
2018-09-28T02:08:23.648Z,88.60
2018-09-28T02:10:51.485Z,88.97
2018-09-28T02:13:19.401Z,89.24
2018-09-28T02:15:47.349Z,88.97
2018-09-28T02:18:15.146Z,89.14
2018-09-28T02:20:43.024Z,88.42
2018-09-28T02:23:10.889Z,87.72
2018-09-28T02:25:38.721Z,88.01
2018-09-28T02:28:06.574Z,88.35
2018-09-28T02:30:35.420Z,87.17
2018-09-28T02:33:03.243Z,88.27
2018-09-28T02:35:31.063Z,87.99
2018-09-28T02:37:58.888Z,87.65
2018-09-28T02:40:26.716Z,87.74
2018-09-28T02:42:54.596Z,88.06
2018-09-28T02:45:22.424Z,87.59
2018-09-28T02:47:50.324Z,87.83
2018-09-28T02:50:18.205Z,88.27
2018-09-28T02:52:46.353Z,87.75
2018-09-28T02:55:14.343Z,88.16
2018-09-28T02:57:42.338Z,88.23
2018-09-28T03:00:10.301Z,87.86
2018-09-28T03:02:38.183Z,88.10
2018-09-28T03:05:06.163Z,87.31
2018-09-28T03:07:34.030Z,87.33
2018-09-28T03:10:02.091Z,86.84
2018-09-28T03:12:30.105Z,87.32
2018-09-28T03:14:58.057Z,87.66
2018-09-28T03:17:25.938Z,87.49
2018-09-28T03:19:53.785Z,87.37
2018-09-28T03:22:21.643Z,87.56
2018-09-28T03:24:49.471Z,87.51
2018-09-28T03:27:17.251Z,87.92
2018-09-28T03:29:45.071Z,87.77
2018-09-28T03:32:12.921Z,87.84
2018-09-28T03:34:40.720Z,88.45
2018-09-28T03:37:08.498Z,87.89
2018-09-28T03:39:36.322Z,88.26
2018-09-28T03:42:04.119Z,88.15
2018-09-28T03:44:31.956Z,88.26
2018-09-28T03:46:59.870Z,88.35
2018-09-28T03:49:27.684Z,88.25
2018-09-28T03:51:55.538Z,88.30
2018-09-28T03:54:23.328Z,88.29
2018-09-28T03:56:51.206Z,88.39
2018-09-28T03:59:19.030Z,88.52
2018-09-28T04:01:46.879Z,87.95
2018-09-28T04:04:14.699Z,87.90
2018-09-28T04:06:42.490Z,87.91
2018-09-28T04:09:11.449Z,88.17
2018-09-28T04:11:39.258Z,87.72
2018-09-28T04:14:07.455Z,87.97
2018-09-28T04:16:35.255Z,88.17
2018-09-28T04:19:03.034Z,88.75
2018-09-28T04:21:30.871Z,88.49
2018-09-28T04:23:58.851Z,88.86
2018-09-28T04:26:26.674Z,88.61
2018-09-28T04:28:54.527Z,88.42
2018-09-28T04:31:22.351Z,88.40
2018-09-28T04:33:50.187Z,88.82
2018-09-28T04:36:17.995Z,89.63
2018-09-28T04:38:45.814Z,89.10
2018-09-28T04:41:13.672Z,89.51
2018-09-28T04:43:41.500Z,89.41
2018-09-28T04:46:09.311Z,89.33
2018-09-28T04:48:37.182Z,89.27
2018-09-28T04:51:05.010Z,89.26
2018-09-28T04:53:32.810Z,89.23
2018-09-28T04:56:00.642Z,89.12
2018-09-28T04:58:28.484Z,89.17
2018-09-28T05:00:56.321Z,89.03
2018-09-28T05:03:24.102Z,88.94
2018-09-28T05:05:52.003Z,88.88
2018-09-28T05:08:19.807Z,88.57
2018-09-28T05:10:47.645Z,89.25
2018-09-28T05:13:15.537Z,88.35
2018-09-28T05:15:43.327Z,88.88
2018-09-28T05:18:11.198Z,88.63
2018-09-28T05:20:38.994Z,89.15
2018-09-28T05:23:06.899Z,88.58
2018-09-28T05:25:34.750Z,88.77
2018-09-28T05:28:02.570Z,88.71
2018-09-28T05:30:30.494Z,88.88
2018-09-28T05:32:58.450Z,89.06
2018-09-28T05:35:26.119Z,88.99
2018-09-28T05:37:54.010Z,89.45
2018-09-28T05:40:21.836Z,89.09
2018-09-28T05:42:49.726Z,89.00
2018-09-28T05:45:17.547Z,88.98
2018-09-28T05:47:45.346Z,88.26
2018-09-28T05:50:13.163Z,88.35
2018-09-28T05:52:40.963Z,88.00
2018-09-28T05:55:08.802Z,87.49
2018-09-28T05:57:36.598Z,87.44
2018-09-28T06:00:10.071Z,86.38
2018-09-28T06:02:43.502Z,86.07
2018-09-28T06:05:16.814Z,86.27
2018-09-28T06:07:44.610Z,85.95
2018-09-28T06:10:12.394Z,85.25
2018-09-28T06:12:40.342Z,84.69
2018-09-28T06:15:08.195Z,84.80
2018-09-28T06:17:36.064Z,83.84
2018-09-28T06:20:03.931Z,84.78
2018-09-28T06:22:31.774Z,84.55
2018-09-28T06:24:59.558Z,84.27
2018-09-28T06:27:27.411Z,83.14
2018-09-28T06:29:55.269Z,83.41
2018-09-28T06:32:23.119Z,83.70
2018-09-28T06:34:50.968Z,83.10
2018-09-28T06:37:18.751Z,82.18
2018-09-28T06:39:46.609Z,81.93
2018-09-28T06:42:14.450Z,81.62
2018-09-28T06:44:42.255Z,81.15
2018-09-28T06:47:10.149Z,81.03
2018-09-28T06:49:37.953Z,80.87
2018-09-28T06:52:05.799Z,80.21
2018-09-28T06:54:33.625Z,79.27
2018-09-28T06:57:01.435Z,78.29
2018-09-28T06:59:29.262Z,77.46
2018-09-28T07:01:57.076Z,77.17
2018-09-28T07:04:24.917Z,77.26
2018-09-28T07:06:52.710Z,77.20
2018-09-28T07:09:20.550Z,77.34
2018-09-28T07:11:48.458Z,77.28
2018-09-28T07:14:16.234Z,77.01
2018-09-28T07:16:44.112Z,76.91
2018-09-28T07:19:11.955Z,76.36
2018-09-28T07:21:39.787Z,75.10
2018-09-28T07:24:07.644Z,75.14
2018-09-28T07:26:35.436Z,74.41
2018-09-28T07:29:03.255Z,73.69
2018-09-28T07:31:31.118Z,73.04
2018-09-28T07:33:58.907Z,72.12
2018-09-28T07:36:26.853Z,70.88
2018-09-28T07:38:54.606Z,71.63
2018-09-28T07:41:29.074Z,70.89
2018-09-28T07:43:56.927Z,69.07
2018-09-28T07:46:24.723Z,71.31
2018-09-28T07:48:52.512Z,65.52
2018-09-28T07:51:20.391Z,68.99
2018-09-28T07:53:48.186Z,66.06
2018-09-28T07:56:15.964Z,64.20
2018-09-28T07:58:43.779Z,67.13
2018-09-28T08:01:11.586Z,66.17
2018-09-28T08:03:39.456Z,67.04
2018-09-28T08:06:07.282Z,66.19
2018-09-28T08:08:35.074Z,65.32
2018-09-28T08:11:02.894Z,66.86
2018-09-28T08:13:30.664Z,66.08
2018-09-28T08:15:58.513Z,64.73
2018-09-28T08:18:26.290Z,61.88
2018-09-28T08:20:54.074Z,64.33
2018-09-28T08:23:22.033Z,62.01
2018-09-28T08:25:50.275Z,59.80
2018-09-28T08:28:18.835Z,57.43
2018-09-28T08:30:46.651Z,61.08
2018-09-28T08:33:14.451Z,58.96
2018-09-28T08:35:42.283Z,59.72
2018-09-28T08:38:10.082Z,57.46
2018-09-28T08:40:37.899Z,56.95
2018-09-28T08:43:05.818Z,59.54
2018-09-28T08:45:33.635Z,57.49
2018-09-28T08:48:01.491Z,56.17
2018-09-28T08:50:29.350Z,54.92
2018-09-28T08:52:57.342Z,55.51
2018-09-28T08:55:25.114Z,57.10
2018-09-28T08:57:52.922Z,57.34
2018-09-28T09:00:21.027Z,56.74
2018-09-28T09:02:48.803Z,57.34
2018-09-28T09:05:16.610Z,55.75
2018-09-28T09:07:44.419Z,50.01
2018-09-28T09:10:12.206Z,50.68
2018-09-28T09:12:40.441Z,51.86
2018-09-28T09:15:08.313Z,46.80
2018-09-28T09:17:36.163Z,50.30
2018-09-28T09:20:04.074Z,48.72
2018-09-28T09:22:31.860Z,48.69
2018-09-28T09:24:59.704Z,52.19
2018-09-28T09:27:27.494Z,52.17
2018-09-28T09:29:55.269Z,44.94
2018-09-28T09:32:23.140Z,50.53
2018-09-28T09:34:50.974Z,49.67
2018-09-28T09:37:18.752Z,50.16
2018-09-28T09:39:46.527Z,46.88
2018-09-28T09:42:14.383Z,47.72
2018-09-28T09:44:42.558Z,45.19
2018-09-28T09:47:10.325Z,47.76
2018-09-28T09:49:38.207Z,45.58
2018-09-28T09:52:06.116Z,44.10
2018-09-28T09:54:34.012Z,45.05
2018-09-28T09:57:01.842Z,46.98
2018-09-28T09:59:29.616Z,47.74
2018-09-28T10:02:03.096Z,47.22
2018-09-28T10:04:30.885Z,42.30
2018-09-28T10:06:58.698Z,43.55
2018-09-28T10:09:26.506Z,46.11
2018-09-28T10:11:54.320Z,43.22
2018-09-28T10:14:22.102Z,47.01
2018-09-28T10:16:49.870Z,47.54
2018-09-28T10:19:17.728Z,48.04
2018-09-28T10:21:45.502Z,44.54
2018-09-28T10:24:13.355Z,45.15
2018-09-28T10:26:41.135Z,44.86
2018-09-28T10:29:08.940Z,47.06
2018-09-28T10:31:36.750Z,45.93
2018-09-28T10:34:04.599Z,45.49
2018-09-28T10:36:32.414Z,46.68
2018-09-28T10:39:00.903Z,45.78
2018-09-28T10:41:28.786Z,45.86
2018-09-28T10:43:56.656Z,44.89
2018-09-28T10:46:24.455Z,46.54
2018-09-28T10:48:52.554Z,47.61
2018-09-28T10:51:20.480Z,46.35
2018-09-28T10:53:48.243Z,47.19
2018-09-28T10:56:16.098Z,47.17
2018-09-28T10:58:43.912Z,48.55
2018-09-28T11:01:11.781Z,49.05
2018-09-28T11:03:39.621Z,50.34
2018-09-28T11:06:07.470Z,50.10
2018-09-28T11:08:35.390Z,50.77
2018-09-28T11:11:03.180Z,51.55
2018-09-28T11:13:31.066Z,51.51
2018-09-28T11:15:58.874Z,51.66
2018-09-28T11:18:26.742Z,52.16
2018-09-28T11:20:54.599Z,52.46
2018-09-28T11:23:22.477Z,52.98
2018-09-28T11:25:50.262Z,50.51
2018-09-28T11:28:18.068Z,51.08
2018-09-28T11:30:45.870Z,48.90
2018-09-28T11:33:13.661Z,48.65
2018-09-28T11:35:41.503Z,48.84
2018-09-28T11:38:09.278Z,48.79
2018-09-28T11:40:37.065Z,49.47
2018-09-28T11:43:04.985Z,50.83
2018-09-28T11:45:32.843Z,51.41
2018-09-28T11:48:00.594Z,52.62
2018-09-28T11:50:28.486Z,52.47
2018-09-28T11:52:56.282Z,51.87
2018-09-28T11:55:24.170Z,53.12
2018-09-28T11:57:51.944Z,53.20
2018-09-28T12:00:19.723Z,51.39
2018-09-28T12:02:47.566Z,52.35
2018-09-28T12:05:15.448Z,52.16
2018-09-28T12:07:43.170Z,52.28
2018-09-28T12:10:10.998Z,51.10
2018-09-28T12:12:38.820Z,50.48
2018-09-28T12:15:06.748Z,51.83
2018-09-28T12:17:34.522Z,49.73
2018-09-28T12:20:02.318Z,50.33
2018-09-28T12:22:30.215Z,50.56
2018-09-28T12:24:57.995Z,51.44
2018-09-28T12:27:25.916Z,51.35
2018-09-28T12:29:53.679Z,52.86
2018-09-28T12:32:21.488Z,52.74
2018-09-28T12:34:49.274Z,53.08
2018-09-28T12:37:17.116Z,53.25
2018-09-28T12:39:44.972Z,52.64
2018-09-28T12:42:12.781Z,52.30
2018-09-28T12:44:40.692Z,52.60
2018-09-28T12:47:08.445Z,52.35
2018-09-28T12:49:36.258Z,51.84
2018-09-28T12:52:04.095Z,52.55
2018-09-28T12:54:32.012Z,50.24
2018-09-28T12:56:59.836Z,52.80
2018-09-28T12:59:27.655Z,53.16
2018-09-28T13:01:55.490Z,52.81
2018-09-28T13:04:23.286Z,52.13
2018-09-28T13:06:51.096Z,52.24
2018-09-28T13:09:18.934Z,51.08
2018-09-28T13:11:46.778Z,52.10
2018-09-28T13:14:14.709Z,52.73
2018-09-28T13:16:42.542Z,50.95
2018-09-28T13:19:10.340Z,52.18
2018-09-28T13:21:38.204Z,53.08
2018-09-28T13:24:06.151Z,53.29
2018-09-28T13:26:34.016Z,53.70
2018-09-28T13:29:01.925Z,53.80
2018-09-28T13:31:29.719Z,50.07
2018-09-28T13:33:57.895Z,52.88
2018-09-28T13:36:25.730Z,53.24
2018-09-28T13:38:53.619Z,50.76
2018-09-28T13:41:21.410Z,52.08
2018-09-28T13:43:49.202Z,53.42
2018-09-28T13:46:17.010Z,53.66
2018-09-28T13:48:44.894Z,53.42
2018-09-28T13:51:12.719Z,54.30
2018-09-28T13:53:40.519Z,51.01
2018-09-28T13:56:08.512Z,52.31
2018-09-28T13:58:36.209Z,51.81
2018-09-28T14:01:04.050Z,53.06
2018-09-28T14:03:31.883Z,53.53
2018-09-28T14:05:59.682Z,53.32
2018-09-28T14:08:27.539Z,54.75
2018-09-28T14:10:55.451Z,54.72
2018-09-28T14:13:23.237Z,55.57
2018-09-28T14:15:51.031Z,56.23
2018-09-28T14:18:18.870Z,56.43
2018-09-28T14:20:46.743Z,56.50
2018-09-28T14:23:14.478Z,56.70
2018-09-28T14:25:42.280Z,54.23
2018-09-28T14:28:10.265Z,55.69
2018-09-28T14:30:38.023Z,55.75
2018-09-28T14:33:05.853Z,54.40
2018-09-28T14:35:33.667Z,55.26
2018-09-28T14:38:01.529Z,55.72
2018-09-28T14:40:29.328Z,56.25
2018-09-28T14:42:57.159Z,56.30
2018-09-28T14:45:24.943Z,57.02
2018-09-28T14:47:52.808Z,57.54
2018-09-28T14:50:20.744Z,57.67
2018-09-28T14:52:48.673Z,58.62
2018-09-28T14:55:16.409Z,59.00
2018-09-28T14:57:44.193Z,59.39
2018-09-28T15:00:12.236Z,59.55
2018-09-28T15:02:40.016Z,59.27
2018-09-28T15:05:07.831Z,59.82
2018-09-28T15:07:35.879Z,60.05
2018-09-28T15:10:03.863Z,60.79
2018-09-28T15:12:31.717Z,61.19
2018-09-28T15:14:59.537Z,61.27
2018-09-28T15:17:27.361Z,61.50
2018-09-28T15:19:55.166Z,61.62
2018-09-28T15:22:23.027Z,61.77
2018-09-28T15:24:50.831Z,62.41
2018-09-28T15:27:18.614Z,62.57
2018-09-28T15:29:46.502Z,63.28
2018-09-28T15:32:14.254Z,63.19
2018-09-28T15:34:42.059Z,63.16
2018-09-28T15:37:09.854Z,63.77
2018-09-28T15:39:37.713Z,63.90
2018-09-28T15:42:05.509Z,64.28
2018-09-28T15:44:34.199Z,64.55
2018-09-28T15:47:02.046Z,65.21
2018-09-28T15:49:29.831Z,65.26
2018-09-28T15:51:57.602Z,65.66
2018-09-28T15:54:25.460Z,66.17
2018-09-28T15:56:53.324Z,66.57
2018-09-28T15:59:21.114Z,67.74
2018-09-28T16:01:48.978Z,67.53
2018-09-28T16:04:16.794Z,68.19
2018-09-28T16:06:44.606Z,68.38
2018-09-28T16:09:12.512Z,68.29
2018-09-28T16:11:40.325Z,68.45
2018-09-28T16:14:08.119Z,69.29
2018-09-28T16:16:35.959Z,69.62
2018-09-28T16:19:03.792Z,70.06
2018-09-28T16:21:31.609Z,69.90
2018-09-28T16:23:59.499Z,70.34
2018-09-28T16:26:27.301Z,70.50
2018-09-28T16:28:55.138Z,70.24
2018-09-28T16:31:22.953Z,72.40
2018-09-28T16:33:50.795Z,72.08
2018-09-28T16:36:18.695Z,71.89
2018-09-28T16:38:46.488Z,70.97
2018-09-28T16:41:14.323Z,71.28
2018-09-28T16:43:42.120Z,71.85
2018-09-28T16:46:09.969Z,72.66
2018-09-28T16:48:37.759Z,73.14
2018-09-28T16:51:05.655Z,73.21
2018-09-28T16:53:33.611Z,73.13
2018-09-28T16:56:01.391Z,73.50
2018-09-28T16:58:29.237Z,73.86
2018-09-28T17:00:57.075Z,73.88
2018-09-28T17:03:24.856Z,73.84
2018-09-28T17:05:52.646Z,75.11
2018-09-28T17:08:20.648Z,76.29
2018-09-28T17:10:48.447Z,77.76
2018-09-28T17:13:16.288Z,74.95
2018-09-28T17:15:44.199Z,74.48
2018-09-28T17:18:12.011Z,75.21
2018-09-28T17:20:39.803Z,75.36
2018-09-28T17:23:07.612Z,79.23
2018-09-28T17:25:35.417Z,79.37
2018-09-28T17:28:03.243Z,79.88
2018-09-28T17:30:31.059Z,79.44
2018-09-28T17:32:59.143Z,78.88
2018-09-28T17:35:27.012Z,79.24
2018-09-28T17:37:55.034Z,77.71
2018-09-28T17:40:22.929Z,80.32
2018-09-28T17:42:50.772Z,80.61
2018-09-28T17:45:18.591Z,79.73
2018-09-28T17:47:46.422Z,78.56
2018-09-28T17:50:14.494Z,78.88
2018-09-28T17:52:42.395Z,79.16
2018-09-28T17:55:10.183Z,80.37
2018-09-28T17:57:37.967Z,81.85
2018-09-28T18:00:05.867Z,80.53
2018-09-28T18:02:33.663Z,79.69
2018-09-28T18:05:01.458Z,80.98
2018-09-28T18:07:29.275Z,79.48
2018-09-28T18:09:57.439Z,79.33
2018-09-28T18:12:25.258Z,80.56
2018-09-28T18:14:53.046Z,81.38
2018-09-28T18:17:20.839Z,80.96
2018-09-28T18:19:48.683Z,81.16
2018-09-28T18:22:17.141Z,81.30
2018-09-28T18:24:44.957Z,82.07
2018-09-28T18:27:12.794Z,81.03
2018-09-28T18:29:40.597Z,80.78
2018-09-28T18:32:08.436Z,80.32
2018-09-28T18:34:36.274Z,81.37
2018-09-28T18:37:04.089Z,80.34
2018-09-28T18:39:31.943Z,79.85
2018-09-28T18:41:59.795Z,80.43
2018-09-28T18:44:27.621Z,81.50
2018-09-28T18:46:55.414Z,81.90
2018-09-28T18:49:23.194Z,82.64
2018-09-28T18:51:51.114Z,82.29
2018-09-28T18:54:18.977Z,82.30
2018-09-28T18:56:46.926Z,81.99
2018-09-28T18:59:14.707Z,83.13
2018-09-28T19:01:42.519Z,83.09
2018-09-28T19:04:10.352Z,82.79
2018-09-28T19:06:38.230Z,82.89
2018-09-28T19:09:08.440Z,82.48
2018-09-28T19:11:36.260Z,83.41
2018-09-28T19:14:04.190Z,84.19
2018-09-28T19:16:32.086Z,83.16
2018-09-28T19:18:59.962Z,84.29
2018-09-28T19:21:27.773Z,84.96
2018-09-28T19:23:55.615Z,83.24
2018-09-28T19:26:23.469Z,83.99
2018-09-28T19:28:51.421Z,84.46
2018-09-28T19:31:19.272Z,85.00
2018-09-28T19:33:47.087Z,84.29
2018-09-28T19:36:14.894Z,83.57
2018-09-28T19:38:42.752Z,82.97
2018-09-28T19:41:10.534Z,83.55
2018-09-28T19:43:38.344Z,82.92
2018-09-28T19:46:06.394Z,84.07
2018-09-28T19:48:34.186Z,84.46
2018-09-28T19:51:02.004Z,85.20
2018-09-28T19:53:29.815Z,85.36
2018-09-28T19:55:57.594Z,84.72
2018-09-28T19:58:25.449Z,83.84
2018-09-28T20:00:53.230Z,83.73
2018-09-28T20:03:21.014Z,83.82
2018-09-28T20:05:48.859Z,83.44
2018-09-28T20:08:16.635Z,84.35
2018-09-28T20:10:44.433Z,83.46
2018-09-28T20:13:12.398Z,85.17
2018-09-28T20:15:40.223Z,85.44
2018-09-28T20:18:08.043Z,85.50
2018-09-28T20:20:35.891Z,86.26
2018-09-28T20:23:03.707Z,85.29
2018-09-28T20:25:31.533Z,85.39
2018-09-28T20:27:59.396Z,86.15
2018-09-28T20:30:27.218Z,86.08
2018-09-28T20:32:55.050Z,84.48
2018-09-28T20:35:22.914Z,84.07
2018-09-28T20:37:50.723Z,84.19
2018-09-28T20:40:18.497Z,85.60
2018-09-28T20:42:46.323Z,85.97
2018-09-28T20:45:14.155Z,86.07
2018-09-28T20:47:42.014Z,86.33
2018-09-28T20:50:09.843Z,85.82
2018-09-28T20:52:37.682Z,86.04
2018-09-28T20:55:05.510Z,86.51
2018-09-28T20:57:33.350Z,85.47
2018-09-28T21:00:01.155Z,85.36
2018-09-28T21:02:28.956Z,85.52
2018-09-28T21:04:56.799Z,84.73
2018-09-28T21:07:24.672Z,86.20
2018-09-28T21:09:52.459Z,86.30
2018-09-28T21:12:20.239Z,86.45
2018-09-28T21:14:48.088Z,85.53
2018-09-28T21:17:15.883Z,84.92
2018-09-28T21:19:43.678Z,84.81
2018-09-28T21:22:11.532Z,85.67
2018-09-28T21:24:39.373Z,85.77
2018-09-28T21:27:07.194Z,86.04
2018-09-28T21:29:35.051Z,85.94
2018-09-28T21:32:02.862Z,86.12
2018-09-28T21:34:30.655Z,85.57
2018-09-28T21:36:58.531Z,85.19
2018-09-28T21:39:26.313Z,85.27
2018-09-28T21:41:54.098Z,85.27
2018-09-28T21:44:21.953Z,85.16
2018-09-28T21:46:49.766Z,85.10
2018-09-28T21:49:17.574Z,84.79
2018-09-28T21:51:45.398Z,85.63
2018-09-28T21:54:13.202Z,87.16
2018-09-28T21:56:40.987Z,86.87
2018-09-28T21:59:08.826Z,86.22
2018-09-28T22:01:36.619Z,85.80
2018-09-28T22:04:04.455Z,86.41
2018-09-28T22:06:32.258Z,85.79
2018-09-28T22:09:00.087Z,85.88
2018-09-28T22:11:27.879Z,86.52
2018-09-28T22:13:55.675Z,86.77
2018-09-28T22:16:23.596Z,85.74
2018-09-28T22:18:51.398Z,85.98
2018-09-28T22:21:19.235Z,86.64
2018-09-28T22:23:47.023Z,85.35
2018-09-28T22:26:14.803Z,85.00
2018-09-28T22:28:42.623Z,84.81
2018-09-28T22:31:10.395Z,85.53
2018-09-28T22:33:38.181Z,86.36
2018-09-28T22:36:06.262Z,86.79
2018-09-28T22:38:34.054Z,86.27
2018-09-28T22:41:01.842Z,86.71
2018-09-28T22:43:29.673Z,87.82
2018-09-28T22:45:57.490Z,87.68
2018-09-28T22:48:25.311Z,86.84
2018-09-28T22:50:53.137Z,86.63
2018-09-28T22:53:20.926Z,86.89
2018-09-28T22:55:48.835Z,86.01
2018-09-28T22:58:16.610Z,87.45
2018-09-28T23:00:44.416Z,87.64
2018-09-28T23:03:12.235Z,87.04
2018-09-28T23:05:40.078Z,86.59
2018-09-28T23:08:07.947Z,86.65
2018-09-28T23:10:35.816Z,86.98
2018-09-28T23:13:03.641Z,86.02
2018-09-28T23:15:31.439Z,86.17
2018-09-28T23:17:59.231Z,86.61
2018-09-28T23:20:27.094Z,87.32
2018-09-28T23:22:54.886Z,87.95
2018-09-28T23:25:22.749Z,88.47
2018-09-28T23:27:50.542Z,88.51
2018-09-28T23:30:18.347Z,88.17
2018-09-28T23:32:46.224Z,87.17
2018-09-28T23:35:13.994Z,87.31
2018-09-28T23:37:41.779Z,86.50
2018-09-28T23:40:09.670Z,85.83
2018-09-28T23:42:37.447Z,85.96
2018-09-28T23:45:05.279Z,85.92
2018-09-28T23:47:33.110Z,86.71
2018-09-28T23:50:00.951Z,87.85
2018-09-28T23:52:28.810Z,87.83
2018-09-28T23:54:56.601Z,87.83
2018-09-28T23:57:24.414Z,87.61
2018-09-28T23:59:52.275Z,87.62
